KFUL/FUL METAR and TAF weather

Enter ICAO airport designator
Station Type Date Time Source
KFUL METAR 2020/07/14 15:53 UTC NOAA

KFUL 141553Z 05004KT 10SM FEW024 24/15 A2996 RMK AO2 SLP144 T02390150


Station Type Date Time Source
KFUL Decoded METAR 2020/07/14 15:53 UTC NOAA

FULLERTON MUNICIPAL AIRPORT , CA, United States (KFUL) 33-52N 117-59W 35M
Jul 14, 2020 - 11:53 AM EDT / 2020.07.14 1553 UTC
Wind: from the NE (050 degrees) at 5 MPH (4 KT):0
Visibility: 10 mile(s):0
Sky conditions: mostly clear
Temperature: 75.0 F (23.9 C)
Dew Point: 59.0 F (15.0 C)
Relative Humidity: 57%
Pressure (altimeter): 29.96 in. Hg (1014 hPa)
ob: KFUL 141553Z 05004KT 10SM FEW024 24/15 A2996 RMK AO2 SLP144 T02390150
cycle: 16

Station Type Date Time Source
KFUL TAF UTC NOAA

Error!

Example: see airport list